Time;durP1;ratioP1;P1;durP2;ratioP2;P2;SDS_P1;SDS_P2;PMS_P1;PMS_P2;Temp;Humidity;BMP_temperature;BMP_pressure;BME280_temperature;BME280_humidity;BME280_pressure;Samples;Min_cycle;Max_cycle;Signal;HPM_P1;HPM_P2
2023/09/13 00:02:04;;;;;;;7.07;5.60;;;19.50;99.90;;;;;;4994866;28;20453;-53
2023/09/13 00:04:29;;;;;;;5.57;5.10;;;19.40;99.90;;;;;;4994616;28;20394;-52
2023/09/13 00:06:55;;;;;;;6.43;5.82;;;19.40;99.90;;;;;;4994838;28;20030;-53
2023/09/13 00:09:20;;;;;;;7.53;5.63;;;19.40;99.90;;;;;;4994748;28;20026;-51
2023/09/13 00:11:46;;;;;;;7.15;5.88;;;19.30;99.90;;;;;;4993742;28;20490;-50
2023/09/13 00:14:12;;;;;;;6.40;5.80;;;19.30;99.90;;;;;;4994478;28;20033;-50
2023/09/13 00:16:39;;;;;;;6.57;5.70;;;19.30;99.90;;;;;;4994661;28;20505;-51
2023/09/13 00:19:06;;;;;;;7.50;5.97;;;19.30;99.90;;;;;;4994640;28;20026;-53
2023/09/13 00:21:32;;;;;;;5.97;5.47;;;19.30;99.90;;;;;;4994568;28;20165;-52
2023/09/13 00:23:58;;;;;;;10.07;5.97;;;19.40;99.90;;;;;;4994656;28;20085;-52
2023/09/13 00:26:23;;;;;;;6.95;5.95;;;19.40;99.90;;;;;;4993222;28;20038;-55
2023/09/13 00:28:50;;;;;;;9.70;6.68;;;19.30;99.90;;;;;;4993031;28;20112;-56
2023/09/13 00:31:15;;;;;;;7.70;5.68;;;19.40;99.90;;;;;;4994395;28;20379;-50
2023/09/13 00:33:41;;;;;;;12.57;6.75;;;19.40;99.90;;;;;;4994186;28;20085;-52
2023/09/13 00:36:06;;;;;;;6.55;5.90;;;19.40;99.90;;;;;;4994393;28;20457;-56
2023/09/13 00:38:32;;;;;;;10.45;6.15;;;19.50;99.90;;;;;;4994349;28;20508;-55
2023/09/13 00:40:57;;;;;;;7.75;6.10;;;19.60;99.90;;;;;;4995852;23;20072;-50
2023/09/13 00:43:24;;;;;;;6.50;5.90;;;19.60;99.90;;;;;;4955331;28;20027;-49
2023/09/13 00:45:50;;;;;;;6.40;5.90;;;19.60;99.90;;;;;;4954377;28;20483;-54
2023/09/13 00:48:17;;;;;;;5.43;4.85;;;19.60;99.90;;;;;;4955217;29;20385;-53
2023/09/13 00:50:44;;;;;;;6.25;5.18;;;19.60;99.90;;;;;;4963140;28;20025;-53
2023/09/13 00:53:10;;;;;;;7.07;6.43;;;19.70;99.90;;;;;;4974502;28;20040;-52
2023/09/13 00:55:36;;;;;;;6.78;6.18;;;19.70;99.90;;;;;;4974362;28;20041;-55
2023/09/13 00:58:04;;;;;;;7.55;6.78;;;19.80;99.90;;;;;;4974397;28;20085;-54
2023/09/13 01:00:32;;;;;;;9.27;6.18;;;19.90;99.90;;;;;;4973997;28;20069;-51
2023/09/13 01:03:04;;;;;;;8.23;6.85;;;19.80;99.90;;;;;;4974411;28;20047;-55
2023/09/13 01:08:52;;;;;;;7.85;6.53;;;19.80;99.90;;;;;;4972744;28;20085;-51
2023/09/13 01:11:18;;;;;;;6.68;6.05;;;19.70;99.90;;;;;;4974249;28;20062;-55
2023/09/13 01:13:44;;;;;;;9.07;6.28;;;19.70;99.90;;;;;;4974385;28;20038;-55
2023/09/13 01:16:15;;;;;;;6.28;5.45;;;19.70;99.90;;;;;;4973880;28;20491;-52
2023/09/13 01:19:23;;;;;;;5.82;5.20;;;19.70;99.90;;;;;;4974653;28;20030;-50
2023/09/13 01:22:22;;;;;;;6.85;6.18;;;19.70;99.90;;;;;;4974059;28;20037;-52
2023/09/13 01:24:56;;;;;;;6.63;5.95;;;19.70;99.90;;;;;;4973842;28;20027;-54
2023/09/13 01:27:49;;;;;;;8.25;5.82;;;19.70;99.90;;;;;;4974207;28;20031;-54
2023/09/13 01:30:16;;;;;;;6.20;5.60;;;19.70;99.90;;;;;;4958615;28;20058;-52
2023/09/13 01:32:46;;;;;;;13.00;6.93;;;19.70;99.90;;;;;;4973776;28;20039;-52
2023/09/13 01:35:12;;;;;;;6.22;5.72;;;19.80;99.90;;;;;;4973527;28;20041;-53
2023/09/13 01:37:38;;;;;;;6.70;6.00;;;19.70;99.90;;;;;;4973684;28;20022;-55
2023/09/13 01:40:06;;;;;;;9.63;6.05;;;19.70;99.90;;;;;;4973626;28;20031;-52
2023/09/13 01:42:33;;;;;;;8.68;6.32;;;19.70;99.90;;;;;;4973679;28;20030;-50
2023/09/13 01:44:59;;;;;;;7.20;6.03;;;19.60;99.90;;;;;;4971945;28;20517;-50
2023/09/13 01:47:26;;;;;;;10.35;6.18;;;19.70;99.90;;;;;;4973090;28;20409;-50
2023/09/13 01:49:53;;;;;;;6.95;6.35;;;19.70;99.90;;;;;;4973337;28;20023;-49
2023/09/13 01:52:18;;;;;;;8.23;6.65;;;19.60;99.90;;;;;;4973396;28;20034;-54
2023/09/13 01:54:44;;;;;;;9.88;7.30;;;19.60;99.90;;;;;;4973355;28;20030;-51
2023/09/13 01:57:09;;;;;;;11.52;7.40;;;19.50;99.90;;;;;;4973387;28;20050;-54
2023/09/13 01:59:36;;;;;;;7.72;5.93;;;19.40;99.90;;;;;;4973354;28;20035;-55
2023/09/13 02:02:01;;;;;;;6.45;5.80;;;19.40;99.90;;;;;;4973045;28;20038;-54
2023/09/13 02:04:31;;;;;;;7.60;5.70;;;19.30;99.90;;;;;;4972930;28;20026;-57
2023/09/13 02:06:57;;;;;;;8.13;4.90;;;19.20;99.90;;;;;;4973352;28;20022;-54
2023/09/13 02:09:23;;;;;;;5.75;4.78;;;19.10;99.90;;;;;;4973237;28;20026;-55
2023/09/13 02:11:48;;;;;;;7.65;4.78;;;19.10;99.90;;;;;;4971136;28;20023;-53
2023/09/13 02:14:13;;;;;;;5.18;4.68;;;19.10;99.90;;;;;;4972791;28;20109;-54
2023/09/13 02:16:39;;;;;;;5.55;5.05;;;19.20;99.90;;;;;;4972999;28;20109;-54
2023/09/13 02:19:05;;;;;;;7.90;5.00;;;19.10;99.90;;;;;;4971761;28;20089;-56
2023/09/13 02:21:31;;;;;;;6.18;4.00;;;19.10;99.90;;;;;;4972997;28;20070;-51
2023/09/13 02:23:57;;;;;;;5.25;4.80;;;19.10;99.90;;;;;;4972808;28;20026;-53
2023/09/13 02:26:24;;;;;;;5.65;4.20;;;19.10;99.90;;;;;;4973007;28;20483;-52
2023/09/13 02:28:50;;;;;;;7.53;4.15;;;19.10;99.90;;;;;;4973038;28;20065;-52
2023/09/13 02:31:25;;;;;;;7.15;4.75;;;19.10;99.90;;;;;;4973058;28;20031;-50
2023/09/13 02:33:51;;;;;;;4.38;3.90;;;19.10;99.90;;;;;;4972788;28;20026;-52
2023/09/13 02:36:17;;;;;;;5.30;4.45;;;19.10;99.90;;;;;;4972683;28;20042;-52
2023/09/13 02:38:42;;;;;;;4.35;4.05;;;19.10;99.90;;;;;;4972829;28;20487;-55
2023/09/13 02:41:08;;;;;;;4.78;4.35;;;19.20;99.90;;;;;;4972679;28;20375;-54
2023/09/13 02:43:33;;;;;;;4.28;3.97;;;19.10;99.90;;;;;;4972913;28;20034;-52
2023/09/13 02:45:59;;;;;;;5.65;4.13;;;19.10;99.90;;;;;;4970939;28;20023;-54
2023/09/13 02:48:25;;;;;;;5.88;3.83;;;19.10;99.90;;;;;;4971431;28;20034;-56
2023/09/13 02:50:51;;;;;;;4.88;3.63;;;19.10;99.90;;;;;;4972659;28;20023;-56
2023/09/13 02:53:17;;;;;;;4.53;3.33;;;19.10;99.90;;;;;;4972559;28;20408;-54
2023/09/13 02:55:43;;;;;;;4.78;4.28;;;19.10;99.90;;;;;;4972348;28;20103;-51
2023/09/13 02:58:12;;;;;;;5.65;3.47;;;19.10;99.90;;;;;;4972487;28;20037;-53
2023/09/13 03:00:42;;;;;;;5.22;3.42;;;19.10;99.90;;;;;;4972511;28;20027;-54
2023/09/13 03:03:08;;;;;;;6.38;3.83;;;19.10;99.90;;;;;;4972592;28;20407;-55
2023/09/13 03:05:33;;;;;;;6.03;4.00;;;19.10;99.90;;;;;;4971007;28;20133;-51
2023/09/13 03:07:59;;;;;;;7.78;3.83;;;19.10;99.90;;;;;;4972497;28;20106;-56
2023/09/13 03:10:26;;;;;;;6.28;3.80;;;19.10;99.90;;;;;;4972619;28;20046;-52
2023/09/13 03:12:52;;;;;;;6.88;3.53;;;19.10;99.90;;;;;;4972475;28;20019;-51
2023/09/13 03:15:17;;;;;;;6.00;3.80;;;19.10;99.90;;;;;;4972171;28;20037;-55
2023/09/13 03:17:43;;;;;;;5.90;4.47;;;19.10;99.90;;;;;;4972555;28;20030;-55
2023/09/13 03:20:09;;;;;;;6.57;3.85;;;19.10;99.90;;;;;;4971089;28;20401;-52
2023/09/13 03:22:34;;;;;;;6.82;4.20;;;19.00;99.90;;;;;;4973165;28;20086;-54
2023/09/13 03:25:00;;;;;;;6.75;4.25;;;19.00;99.90;;;;;;4974698;28;20026;-52
2023/09/13 03:27:25;;;;;;;5.10;3.22;;;19.00;99.90;;;;;;4975938;28;20118;-53
2023/09/13 03:29:51;;;;;;;4.20;3.58;;;18.90;99.90;;;;;;4976068;28;20054;-51
2023/09/13 03:32:16;;;;;;;3.85;3.55;;;18.90;99.90;;;;;;4976042;28;20027;-54
2023/09/13 03:34:43;;;;;;;4.07;3.67;;;18.90;99.90;;;;;;4975685;28;20034;-54
2023/09/13 03:37:08;;;;;;;6.10;3.67;;;18.90;99.90;;;;;;4975914;28;20502;-56
2023/09/13 03:39:34;;;;;;;4.68;3.72;;;18.80;99.90;;;;;;4975940;28;20038;-52
2023/09/13 03:41:59;;;;;;;4.50;3.47;;;18.80;99.90;;;;;;4975627;28;20039;-52
2023/09/13 03:44:25;;;;;;;6.13;3.42;;;18.80;99.90;;;;;;4975702;28;20026;-52
2023/09/13 03:46:50;;;;;;;3.80;3.50;;;18.80;99.90;;;;;;4975436;28;20070;-53
2023/09/13 03:49:16;;;;;;;9.32;5.10;;;18.80;99.90;;;;;;4975683;28;20027;-51
2023/09/13 03:51:41;;;;;;;4.20;3.80;;;18.80;99.90;;;;;;4976082;28;20026;-49
2023/09/13 03:54:07;;;;;;;4.72;4.32;;;18.80;99.90;;;;;;4975279;28;20379;-53
2023/09/13 03:56:33;;;;;;;5.72;4.68;;;18.80;99.90;;;;;;4975661;28;20063;-51
2023/09/13 03:58:59;;;;;;;4.50;4.07;;;18.80;99.90;;;;;;4975747;28;20046;-52
2023/09/13 04:01:24;;;;;;;4.93;4.43;;;18.90;99.90;;;;;;4975496;28;20034;-50
2023/09/13 04:03:50;;;;;;;11.13;4.13;;;18.80;99.90;;;;;;4974099;28;20023;-51
2023/09/13 04:06:16;;;;;;;4.75;3.80;;;18.80;99.90;;;;;;4975361;28;20114;-50
2023/09/13 04:08:41;;;;;;;7.93;4.20;;;18.80;99.90;;;;;;4975320;28;20034;-56
2023/09/13 04:11:08;;;;;;;13.38;4.10;;;18.80;99.90;;;;;;4975433;28;20058;-50
2023/09/13 04:13:34;;;;;;;4.43;4.03;;;18.70;99.90;;;;;;4975151;28;20078;-52
2023/09/13 04:16:01;;;;;;;5.22;4.22;;;18.70;99.90;;;;;;4975119;28;20019;-50
2023/09/13 04:18:27;;;;;;;4.43;4.03;;;18.70;99.90;;;;;;4975291;28;20433;-50
2023/09/13 04:20:52;;;;;;;7.07;4.68;;;18.70;99.90;;;;;;4975271;28;20043;-56
2023/09/13 04:23:18;;;;;;;11.65;5.55;;;18.70;99.90;;;;;;4974976;28;20018;-54
2023/09/13 04:25:43;;;;;;;8.15;4.20;;;18.60;99.90;;;;;;4974889;28;20082;-53
2023/09/13 04:28:09;;;;;;;4.60;3.70;;;18.60;99.90;;;;;;4974880;28;20042;-51
2023/09/13 04:30:34;;;;;;;4.97;4.15;;;18.50;99.90;;;;;;4974979;28;20029;-54
2023/09/13 04:33:02;;;;;;;9.10;3.90;;;18.60;99.90;;;;;;4975144;28;20033;-54
2023/09/13 04:35:27;;;;;;;7.82;4.07;;;18.50;99.90;;;;;;4973899;28;20039;-52
2023/09/13 04:37:54;;;;;;;3.95;3.55;;;18.60;99.90;;;;;;4973654;28;20037;-51
2023/09/13 04:40:19;;;;;;;4.88;3.78;;;18.60;99.90;;;;;;4974731;28;20035;-50
2023/09/13 04:42:55;;;;;;;4.50;4.10;;;18.60;99.90;;;;;;4974830;28;20030;-51
2023/09/13 04:45:21;;;;;;;4.38;3.80;;;18.60;99.90;;;;;;4974459;28;20421;-54
2023/09/13 04:47:47;;;;;;;4.32;3.92;;;18.60;99.90;;;;;;4973023;28;20517;-52
2023/09/13 04:50:12;;;;;;;7.40;4.10;;;18.60;99.90;;;;;;4973364;28;20031;-53
2023/09/13 04:52:38;;;;;;;5.75;4.00;;;18.60;99.90;;;;;;4975034;28;20054;-52
2023/09/13 04:55:05;;;;;;;5.03;4.30;;;18.60;99.90;;;;;;4974562;28;20034;-55
2023/09/13 04:57:30;;;;;;;5.10;4.60;;;18.60;99.90;;;;;;4974870;28;20089;-55
2023/09/13 04:59:56;;;;;;;5.10;4.60;;;18.60;99.90;;;;;;4974703;28;20098;-53
2023/09/13 05:02:21;;;;;;;5.50;4.65;;;18.60;99.90;;;;;;4973090;28;20029;-57
2023/09/13 05:04:47;;;;;;;3.97;3.58;;;18.60;99.90;;;;;;4972926;28;20490;-55
2023/09/13 05:07:13;;;;;;;5.07;4.60;;;18.60;99.90;;;;;;4974466;28;20062;-55
2023/09/13 05:09:40;;;;;;;5.13;4.40;;;18.60;99.90;;;;;;4974286;28;20510;-53
2023/09/13 05:12:06;;;;;;;5.57;4.35;;;18.60;99.90;;;;;;4974179;28;20106;-52
2023/09/13 05:14:33;;;;;;;5.25;4.45;;;18.60;99.90;;;;;;4974171;28;20031;-55
2023/09/13 05:16:59;;;;;;;4.57;4.15;;;18.60;99.90;;;;;;4973018;28;20098;-53
2023/09/13 05:19:25;;;;;;;5.57;4.95;;;18.50;99.90;;;;;;4973120;28;20113;-52
2023/09/13 05:21:51;;;;;;;6.93;4.65;;;18.50;99.90;;;;;;4973927;28;20081;-57
2023/09/13 05:24:17;;;;;;;7.05;4.82;;;18.50;99.90;;;;;;4973718;28;20033;-55
2023/09/13 05:26:42;;;;;;;8.05;5.80;;;18.50;99.90;;;;;;4972662;28;20027;-52
2023/09/13 05:29:08;;;;;;;5.45;4.10;;;18.60;99.90;;;;;;4973858;28;20034;-51
2023/09/13 05:31:33;;;;;;;6.10;4.40;;;18.50;99.90;;;;;;4973665;28;20122;-54
2023/09/13 05:33:59;;;;;;;5.10;4.65;;;18.60;99.90;;;;;;4973596;28;20034;-54
2023/09/13 05:36:24;;;;;;;4.47;4.07;;;18.60;99.90;;;;;;4973563;28;20042;-52
2023/09/13 05:38:50;;;;;;;4.25;3.95;;;18.70;99.90;;;;;;4973536;28;20097;-52
2023/09/13 05:41:15;;;;;;;6.43;4.80;;;18.80;99.90;;;;;;4972506;28;20042;-52
2023/09/13 05:43:42;;;;;;;4.93;4.50;;;18.90;99.90;;;;;;4973531;28;20047;-55
2023/09/13 05:46:09;;;;;;;4.72;3.95;;;19.00;99.90;;;;;;4972210;28;20062;-53
2023/09/13 05:48:35;;;;;;;4.90;4.23;;;19.10;99.90;;;;;;4973535;28;20037;-52
2023/09/13 05:51:00;;;;;;;6.32;4.63;;;19.00;99.90;;;;;;4972280;28;20026;-53
2023/09/13 05:53:26;;;;;;;4.28;3.88;;;19.10;99.90;;;;;;4973458;28;20056;-53
2023/09/13 05:55:52;;;;;;;4.57;4.18;;;19.20;99.90;;;;;;4973159;28;20070;-52
2023/09/13 05:58:18;;;;;;;4.80;4.35;;;19.10;99.90;;;;;;4973272;28;20090;-53
2023/09/13 06:00:47;;;;;;;4.20;3.83;;;19.20;99.90;;;;;;4973382;28;20023;-54
2023/09/13 06:03:13;;;;;;;4.80;4.00;;;19.20;99.90;;;;;;4973248;28;20026;-54
2023/09/13 06:05:38;;;;;;;7.88;4.63;;;19.20;99.90;;;;;;4973078;28;20509;-52
2023/09/13 06:08:04;;;;;;;4.35;3.95;;;19.20;99.90;;;;;;4973352;28;20538;-55
2023/09/13 06:10:30;;;;;;;5.03;4.10;;;19.20;99.90;;;;;;4973117;28;20030;-55
2023/09/13 06:12:56;;;;;;;5.03;3.70;;;19.20;99.90;;;;;;4973147;28;20050;-55
2023/09/13 06:15:21;;;;;;;5.22;4.72;;;19.30;99.90;;;;;;4972819;28;20417;-50
2023/09/13 06:17:47;;;;;;;6.07;4.30;;;19.30;99.90;;;;;;4973061;28;20039;-50
2023/09/13 06:20:13;;;;;;;4.47;4.18;;;19.30;99.90;;;;;;4973154;28;20077;-53
2023/09/13 06:22:38;;;;;;;4.78;4.38;;;19.30;99.90;;;;;;4973156;28;20027;-56
2023/09/13 06:25:04;;;;;;;4.53;4.13;;;19.30;99.90;;;;;;4972718;28;20023;-57
2023/09/13 06:27:30;;;;;;;5.78;4.20;;;19.30;99.90;;;;;;4972723;28;20031;-52
2023/09/13 06:29:56;;;;;;;5.95;4.00;;;19.30;99.90;;;;;;4973217;28;20025;-57
2023/09/13 06:32:22;;;;;;;5.63;4.28;;;19.40;99.90;;;;;;4973022;28;20053;-55
2023/09/13 06:34:48;;;;;;;6.38;5.25;;;19.40;99.90;;;;;;4972642;28;20015;-53
2023/09/13 06:37:13;;;;;;;5.55;4.82;;;19.50;99.90;;;;;;4972825;28;20023;-50
2023/09/13 06:39:39;;;;;;;4.43;4.03;;;19.60;99.90;;;;;;4971331;28;20122;-56
2023/09/13 06:42:06;;;;;;;6.45;5.50;;;19.80;99.90;;;;;;4993547;23;20428;-55
2023/09/13 06:44:32;;;;;;;7.13;4.75;;;20.00;99.90;;;;;;4972013;28;20051;-51
2023/09/13 06:46:57;;;;;;;5.45;4.15;;;20.20;99.90;;;;;;4971255;28;20054;-53
2023/09/13 06:49:23;;;;;;;6.38;4.28;;;20.40;99.90;;;;;;4971632;28;20379;-55
2023/09/13 06:51:49;;;;;;;5.57;4.88;;;20.60;99.90;;;;;;4971591;28;20462;-55
2023/09/13 06:54:14;;;;;;;5.60;4.00;;;20.70;99.90;;;;;;4971261;28;20110;-53
2023/09/13 06:56:43;;;;;;;7.18;4.70;;;20.80;99.90;;;;;;4971528;28;20026;-54
2023/09/13 06:59:09;;;;;;;9.40;5.00;;;20.90;99.90;;;;;;4976617;28;20023;-50
2023/09/13 07:01:34;;;;;;;7.53;3.95;;;21.10;99.90;;;;;;4976789;28;20023;-51
2023/09/13 07:04:00;;;;;;;4.45;4.05;;;21.60;99.90;;;;;;4976588;28;20485;-54
2023/09/13 07:06:26;;;;;;;6.15;3.90;;;22.00;99.90;;;;;;4975170;28;20038;-55
2023/09/13 07:08:51;;;;;;;5.28;4.35;;;22.50;99.90;;;;;;4976766;28;20031;-53
2023/09/13 07:11:17;;;;;;;6.88;3.80;;;22.80;99.90;;;;;;4976530;28;20030;-50
2023/09/13 07:13:42;;;;;;;5.55;3.88;;;23.10;99.90;;;;;;4977071;28;20431;-59
2023/09/13 07:16:08;;;;;;;5.75;3.30;;;23.20;99.90;;;;;;4976894;28;20023;-55
2023/09/13 07:18:34;;;;;;;5.13;3.85;;;23.30;99.90;;;;;;4975454;28;20077;-53
2023/09/13 07:20:59;;;;;;;5.70;4.40;;;23.30;99.90;;;;;;4976583;28;20077;-54
2023/09/13 07:23:26;;;;;;;5.45;4.18;;;23.50;99.90;;;;;;4976370;28;20039;-59
2023/09/13 07:25:52;;;;;;;4.18;3.17;;;23.40;99.90;;;;;;4972897;28;20030;-56
2023/09/13 07:28:17;;;;;;;5.47;3.78;;;23.40;99.90;;;;;;4975962;28;20053;-52
2023/09/13 07:30:43;;;;;;;5.50;3.72;;;23.60;99.90;;;;;;4976768;28;20031;-53
2023/09/13 07:33:08;;;;;;;7.47;4.35;;;23.80;99.90;;;;;;4975317;28;20550;-54
2023/09/13 07:35:34;;;;;;;5.95;5.18;;;23.80;99.90;;;;;;4976278;28;20042;-54
2023/09/13 07:37:59;;;;;;;5.60;4.32;;;23.60;99.90;;;;;;4976645;28;20029;-53
2023/09/13 07:40:25;;;;;;;6.57;4.20;;;23.40;99.90;;;;;;4976157;28;20034;-56
2023/09/13 07:42:50;;;;;;;5.28;3.88;;;23.20;99.90;;;;;;4976287;28;20038;-52
2023/09/13 07:45:16;;;;;;;5.55;4.35;;;22.80;99.90;;;;;;4976376;28;20088;-49
2023/09/13 07:47:42;;;;;;;5.70;5.15;;;22.50;99.90;;;;;;4976229;28;20483;-53
2023/09/13 07:50:31;;;;;;;9.57;5.15;;;22.40;99.90;;;;;;4976123;28;20042;-56
2023/09/13 07:52:56;;;;;;;6.05;4.22;;;22.10;99.90;;;;;;4976173;28;20513;-51
2023/09/13 07:55:24;;;;;;;5.13;4.53;;;21.90;99.90;;;;;;4974439;28;20050;-54
2023/09/13 07:57:50;;;;;;;7.40;4.35;;;21.70;99.90;;;;;;4976070;28;20026;-58
2023/09/13 08:00:15;;;;;;;5.13;4.60;;;21.50;99.90;;;;;;4974245;28;20509;-53
2023/09/13 08:02:41;;;;;;;6.40;5.10;;;21.40;99.90;;;;;;4975570;28;20027;-49
2023/09/13 08:05:07;;;;;;;6.78;4.90;;;21.30;99.90;;;;;;4975290;28;20486;-53
2023/09/13 08:07:33;;;;;;;5.63;4.30;;;21.20;99.90;;;;;;4975461;28;20118;-51
2023/09/13 08:10:01;;;;;;;5.20;4.63;;;21.20;99.90;;;;;;4974153;28;20102;-52
2023/09/13 08:12:26;;;;;;;6.28;4.88;;;21.30;99.90;;;;;;4974099;28;20393;-55
2023/09/13 08:14:52;;;;;;;5.05;4.22;;;21.40;99.90;;;;;;4975110;28;20068;-50
2023/09/13 08:17:18;;;;;;;6.60;4.95;;;21.40;99.90;;;;;;4975301;28;20157;-51
2023/09/13 08:19:43;;;;;;;9.07;5.50;;;21.40;99.90;;;;;;4974209;28;20030;-52
2023/09/13 08:22:09;;;;;;;5.53;5.03;;;21.40;99.90;;;;;;4975202;28;20102;-54
2023/09/13 08:24:34;;;;;;;5.13;4.65;;;21.40;99.90;;;;;;4973646;28;20035;-54
2023/09/13 08:27:00;;;;;;;6.38;5.43;;;21.40;99.90;;;;;;4975219;28;20037;-54
2023/09/13 08:29:25;;;;;;;6.05;5.03;;;21.40;99.90;;;;;;4975208;28;20023;-49
2023/09/13 08:31:51;;;;;;;9.90;4.90;;;21.40;99.90;;;;;;4974876;28;20018;-50
2023/09/13 08:34:17;;;;;;;6.35;5.07;;;21.40;99.90;;;;;;4972628;28;20497;-55
2023/09/13 08:36:42;;;;;;;5.78;4.55;;;21.50;99.90;;;;;;4975046;28;20027;-54
2023/09/13 08:39:08;;;;;;;4.80;4.15;;;21.40;99.90;;;;;;4974262;28;20031;-48
2023/09/13 08:41:33;;;;;;;5.13;4.60;;;21.40;99.90;;;;;;4974345;28;20039;-53
2023/09/13 08:44:02;;;;;;;5.75;4.97;;;21.50;99.90;;;;;;4975128;28;20106;-53
2023/09/13 08:46:28;;;;;;;9.55;5.40;;;21.60;99.90;;;;;;4973765;28;20027;-52
2023/09/13 08:48:55;;;;;;;7.38;5.28;;;21.80;99.90;;;;;;4974490;28;20111;-52
2023/09/13 08:51:22;;;;;;;6.90;5.28;;;21.90;99.90;;;;;;4974750;28;20031;-50
2023/09/13 08:53:50;;;;;;;6.32;4.60;;;22.00;99.90;;;;;;4974059;28;20038;-54
2023/09/13 08:56:16;;;;;;;7.03;4.15;;;22.00;99.90;;;;;;4974994;28;20279;-50
2023/09/13 08:58:41;;;;;;;7.07;4.70;;;22.00;99.90;;;;;;4974795;28;20394;-53
2023/09/13 09:01:09;;;;;;;8.73;4.05;;;22.10;99.90;;;;;;4970324;28;20145;-49
2023/09/13 09:03:35;;;;;;;9.65;5.05;;;22.00;99.90;;;;;;4974683;28;20046;-49
2023/09/13 09:06:03;;;;;;;7.03;4.47;;;21.80;99.90;;;;;;4974320;28;20031;-53
2023/09/13 09:08:29;;;;;;;7.97;4.72;;;21.90;99.90;;;;;;4955139;28;20075;-55
2023/09/13 09:10:59;;;;;;;6.18;5.10;;;22.10;99.90;;;;;;4955340;28;20031;-54
2023/09/13 09:13:27;;;;;;;6.53;5.55;;;22.50;99.90;;;;;;4973878;28;20105;-52
2023/09/13 09:15:55;;;;;;;6.57;5.18;;;22.90;99.90;;;;;;4969928;28;20101;-55
2023/09/13 09:18:22;;;;;;;6.90;5.40;;;23.00;99.90;;;;;;4974352;28;20035;-49
2023/09/13 09:20:48;;;;;;;6.72;4.75;;;23.40;99.90;;;;;;4972754;28;20058;-51
2023/09/13 09:23:13;;;;;;;7.07;4.68;;;23.80;99.90;;;;;;4973059;28;20058;-50
2023/09/13 09:25:40;;;;;;;6.50;4.72;;;24.00;99.90;;;;;;4974245;28;20023;-54
2023/09/13 09:28:05;;;;;;;8.25;4.53;;;24.20;99.90;;;;;;4973786;28;20070;-52
2023/09/13 09:30:32;;;;;;;7.00;5.22;;;24.40;99.90;;;;;;4973193;28;20062;-54
2023/09/13 09:33:05;;;;;;;5.35;4.85;;;24.40;99.90;;;;;;4969842;28;20048;-54
2023/09/13 09:35:31;;;;;;;8.43;4.35;;;24.80;99.90;;;;;;4973776;28;20026;-49
2023/09/13 09:37:57;;;;;;;6.40;4.95;;;25.00;99.90;;;;;;4972005;28;20677;-52
2023/09/13 09:40:23;;;;;;;7.60;4.70;;;24.90;99.90;;;;;;4971925;28;20039;-48
2023/09/13 09:42:56;;;;;;;7.85;4.70;;;24.60;99.90;;;;;;4972489;28;20026;-49
2023/09/13 09:45:22;;;;;;;7.38;4.70;;;24.40;99.90;;;;;;4971689;28;20572;-51
2023/09/13 09:47:50;;;;;;;5.63;4.68;;;24.30;99.90;;;;;;4972134;28;20065;-50
2023/09/13 09:50:15;;;;;;;4.80;4.00;;;24.00;99.90;;;;;;4973846;28;20465;-50
2023/09/13 09:52:42;;;;;;;5.40;4.47;;;23.90;99.90;;;;;;4972320;28;20027;-51
2023/09/13 09:55:13;;;;;;;5.13;4.43;;;23.70;99.90;;;;;;4970908;28;20379;-51
2023/09/13 09:57:48;;;;;;;17.42;14.45;;;23.70;99.90;;;;;;4962915;28;20165;-48
2023/09/13 10:00:14;;;;;;;6.23;5.63;;;23.60;99.90;;;;;;4972541;28;20070;-53
2023/09/13 10:02:40;;;;;;;8.38;5.82;;;23.50;99.90;;;;;;4957127;28;20271;-50
2023/09/13 10:05:05;;;;;;;4.55;4.10;;;23.40;99.90;;;;;;4972778;28;20030;-51
2023/09/13 10:07:48;;;;;;;5.40;4.45;;;23.40;99.90;;;;;;4957910;28;20031;-56
2023/09/13 10:10:28;;;;;;;3.58;3.25;;;23.50;99.90;;;;;;4951685;28;20098;-53
2023/09/13 10:12:54;;;;;;;3.67;3.25;;;24.10;99.90;;;;;;4953321;28;20454;-52
2023/09/13 10:15:20;;;;;;;5.13;3.70;;;24.60;99.90;;;;;;4958477;28;20046;-55
2023/09/13 10:17:48;;;;;;;6.07;3.83;;;24.80;99.90;;;;;;4971490;28;20082;-51
2023/09/13 10:20:17;;;;;;;3.05;2.80;;;25.00;99.90;;;;;;4973107;28;20130;-52
2023/09/13 10:22:46;;;;;;;5.50;3.35;;;25.20;99.90;;;;;;4973124;28;20026;-52
2023/09/13 10:25:15;;;;;;;3.78;3.47;;;25.20;99.90;;;;;;4972724;28;20026;-50
2023/09/13 10:27:46;;;;;;;3.80;3.47;;;25.30;99.90;;;;;;4973037;28;20023;-53
2023/09/13 10:30:20;;;;;;;7.18;3.58;;;25.30;99.90;;;;;;4968436;28;20110;-51
2023/09/13 10:32:48;;;;;;;3.88;2.53;;;25.20;99.90;;;;;;4972112;28;20129;-52
2023/09/13 10:35:15;;;;;;;4.05;2.08;;;25.20;99.90;;;;;;4972463;28;20023;-51
2023/09/13 10:37:52;;;;;;;2.28;2.03;;;25.30;99.90;;;;;;4972794;28;20149;-49
2023/09/13 10:40:23;;;;;;;3.35;2.47;;;25.40;99.90;;;;;;4972642;28;20027;-56
2023/09/13 10:42:49;;;;;;;3.72;2.38;;;25.30;99.90;;;;;;4972812;28;20030;-50
2023/09/13 10:45:18;;;;;;;2.70;2.35;;;25.10;99.90;;;;;;4972325;28;20466;-51
2023/09/13 10:47:47;;;;;;;2.50;2.25;;;25.00;99.90;;;;;;4968654;28;20364;-53
2023/09/13 10:50:14;;;;;;;2.53;2.30;;;25.00;99.90;;;;;;4972635;28;20102;-52
2023/09/13 10:52:41;;;;;;;4.32;2.60;;;24.80;99.90;;;;;;4972850;28;20502;-54
2023/09/13 10:55:08;;;;;;;6.03;2.78;;;24.90;99.90;;;;;;4972185;28;20506;-52
2023/09/13 10:57:34;;;;;;;4.50;2.95;;;24.80;99.90;;;;;;4955826;28;20031;-54
2023/09/13 11:00:08;;;;;;;5.32;2.30;;;24.70;99.90;;;;;;4952186;28;20027;-52
2023/09/13 11:02:34;;;;;;;2.53;2.33;;;24.70;99.90;;;;;;4953479;28;20035;-49
2023/09/13 11:05:00;;;;;;;4.80;2.55;;;24.50;99.90;;;;;;4952992;28;20380;-52
2023/09/13 11:07:25;;;;;;;3.47;2.88;;;24.40;99.90;;;;;;4951906;29;20030;-51
2023/09/13 11:09:51;;;;;;;5.22;2.60;;;24.50;99.90;;;;;;4953521;28;20066;-53
2023/09/13 11:12:17;;;;;;;4.82;3.60;;;24.50;99.90;;;;;;4971278;28;20034;-55
2023/09/13 11:14:46;;;;;;;4.78;2.90;;;24.40;99.90;;;;;;4972053;28;20406;-54
2023/09/13 11:17:37;;;;;;;4.63;2.60;;;24.20;99.90;;;;;;4972220;28;20390;-53
2023/09/13 11:20:32;;;;;;;4.32;2.55;;;24.20;99.90;;;;;;4970845;28;20023;-53
2023/09/13 11:23:15;;;;;;;3.33;2.58;;;23.90;99.90;;;;;;4972176;28;20033;-54
2023/09/13 11:25:55;;;;;;;4.47;2.60;;;23.80;99.90;;;;;;4972141;28;20023;-53
2023/09/13 11:28:36;;;;;;;5.45;3.67;;;23.70;99.90;;;;;;4972593;28;20038;-51
2023/09/13 11:31:02;;;;;;;2.90;2.60;;;23.60;99.90;;;;;;4972604;28;20089;-51
2023/09/13 11:33:29;;;;;;;6.38;2.70;;;23.60;99.90;;;;;;4972156;28;20026;-57
2023/09/13 11:35:58;;;;;;;3.78;2.58;;;23.60;99.90;;;;;;4971638;28;20027;-54
2023/09/13 11:38:27;;;;;;;3.33;2.80;;;23.60;99.90;;;;;;4972285;28;20069;-52
2023/09/13 11:40:57;;;;;;;3.00;2.65;;;23.60;99.90;;;;;;4967853;28;20074;-53
2023/09/13 11:43:24;;;;;;;3.10;2.80;;;23.50;99.90;;;;;;4971849;28;20034;-55
2023/09/13 11:45:51;;;;;;;6.78;2.60;;;23.50;99.90;;;;;;4960100;28;20123;-54
2023/09/13 11:48:28;;;;;;;3.75;2.90;;;23.40;99.90;;;;;;4969717;28;20498;-50
2023/09/13 11:50:55;;;;;;;5.95;2.50;;;23.50;99.90;;;;;;4974789;28;20682;-49
2023/09/13 11:53:28;;;;;;;2.85;2.63;;;23.50;99.90;;;;;;4993958;28;20050;-49
2023/09/13 11:55:56;;;;;;;4.20;2.83;;;23.50;99.90;;;;;;4994806;28;20019;-47
2023/09/13 11:58:36;;;;;;;3.47;2.55;;;23.50;99.90;;;;;;4987870;28;20023;-53
2023/09/13 12:01:04;;;;;;;3.55;2.65;;;23.60;99.90;;;;;;4986694;28;20035;-52
2023/09/13 12:03:31;;;;;;;3.70;2.65;;;23.60;99.90;;;;;;4966781;28;20479;-56
2023/09/13 12:05:57;;;;;;;2.60;2.47;;;23.70;99.90;;;;;;4954797;28;20070;-55
2023/09/13 12:08:27;;;;;;;3.30;2.88;;;23.70;99.90;;;;;;4973401;28;20027;-51
2023/09/13 12:10:52;;;;;;;8.93;3.15;;;23.80;99.90;;;;;;4974308;28;20061;-49
2023/09/13 12:13:18;;;;;;;5.63;3.35;;;23.80;99.90;;;;;;4975502;28;20054;-48
2023/09/13 12:16:00;;;;;;;8.07;5.70;;;23.90;99.90;;;;;;4975260;28;20438;-49
2023/09/13 12:18:26;;;;;;;3.28;2.97;;;24.00;99.90;;;;;;4971642;28;20062;-47
2023/09/13 12:20:56;;;;;;;2.92;2.70;;;24.00;99.90;;;;;;4974956;28;20112;-53
2023/09/13 12:23:22;;;;;;;3.38;3.13;;;24.10;99.90;;;;;;4974572;28;20657;-50
2023/09/13 12:25:48;;;;;;;5.97;2.40;;;24.00;99.90;;;;;;4974806;28;20104;-53
2023/09/13 12:28:39;;;;;;;3.70;2.53;;;23.90;99.90;;;;;;4970820;28;20019;-50
2023/09/13 12:31:12;;;;;;;4.45;4.05;;;23.80;99.90;;;;;;4974928;28;20034;-47
2023/09/13 12:33:40;;;;;;;4.22;3.00;;;23.70;99.90;;;;;;4973684;28;20033;-48
2023/09/13 12:36:07;;;;;;;5.65;2.95;;;23.60;99.90;;;;;;4973616;28;20039;-50
2023/09/13 12:38:53;;;;;;;4.07;2.78;;;23.70;99.90;;;;;;4974236;28;20092;-51
2023/09/13 12:41:29;;;;;;;3.25;2.88;;;23.70;99.90;;;;;;4989301;23;20619;-53
2023/09/13 12:43:55;;;;;;;5.35;2.85;;;23.80;99.90;;;;;;4954744;28;20023;-47
2023/09/13 12:46:22;;;;;;;3.08;2.72;;;23.80;99.90;;;;;;4953731;28;20070;-49
2023/09/13 12:48:53;;;;;;;3.22;2.80;;;23.70;99.90;;;;;;4955418;28;20031;-48
2023/09/13 12:51:31;;;;;;;2.58;2.38;;;23.80;99.90;;;;;;4961473;28;20038;-45